Check out our new BloomSky Weather System.

Active alerts

Houston, TX
  Details for Houston, TX River Flood Warning  +1 additional alert
Fort Bend, TX
  Details for Fort Bend, TX River Flood Warning  +1 additional alert


Thunder radar  blitzortung!


Rain radar more information rain snow radar


Visit our other weather sites:

Template documentation
and downloads

And another site



Weather Underground History page Text

Daily Summary for February 6, 2018 Units:  English    Metric   Both
« Previous Day
Next Day »
Daily Weekly Monthly Yearly Custom
  High: Low: Average:
Temperature: TemperatureF °F 52.9 °F 64.3 °F
Dew Point: DewpointF °F 51.8 °F 63 °F
Humidity: Humidity % 85 % 96 %
Wind Speed: WindSpeedMPH mph 0.0 mph 2.2 mph
Wind Gust: WindSpeedGustMPH mph - -
Wind:- - SSE
Pressure: PressureIn in 29.94 in -
Precipitation: 0.05 in    
Historical Graphs
 
 
Tabular Data for February 6, 2018
Time Temperature Dew Point Pressure Wind Wind Speed Wind Gust Humidity Rainfall Rate (Hourly)
TemperatureF °F DewpointF °F PressureIn in Calm     Humidity % HourlyPrecipIn in
00:04 57.0 °F 56.1 °F 30.07 in ESE 1.0 mph 4.0 mph 97 % 0.00 in
00:09 57.0 °F 56.1 °F 30.06 in SE 2.0 mph 4.0 mph 97 % 0.00 in
00:14 57.0 °F 56.5 °F 30.06 in SE 1.0 mph 4.0 mph 98 % 0.00 in
00:19 57.0 °F 56.5 °F 30.06 in ESE 2.0 mph 4.0 mph 98 % 0.00 in
00:24 57.0 °F 56.5 °F 30.06 in SE 1.0 mph 4.0 mph 98 % 0.00 in
00:29 57.0 °F 56.5 °F 30.06 in ESE 1.0 mph 4.0 mph 98 % 0.00 in
00:34 57.0 °F 56.5 °F 30.06 in Calm   4.0 mph 98 % 0.00 in
00:39 57.0 °F 56.5 °F 30.06 in Calm   2.0 mph 98 % 0.00 in
00:44 57.2 °F 56.7 °F 30.06 in East 1.0 mph 2.0 mph 98 % 0.00 in
00:49 57.2 °F 56.7 °F 30.06 in Calm   2.0 mph 98 % 0.00 in
00:54 57.2 °F 56.7 °F 30.06 in Calm   2.0 mph 98 % 0.00 in
00:59 57.2 °F 56.7 °F 30.05 in Calm   2.0 mph 98 % 0.00 in
01:04 57.4 °F 56.8 °F 30.05 in East 1.0 mph 1.0 mph 98 % 0.00 in
01:09 57.4 °F 56.8 °F 30.05 in Calm   2.0 mph 98 % 0.00 in
01:14 57.4 °F 56.8 °F 30.05 in Calm   2.0 mph 98 % 0.00 in
01:19 57.4 °F 56.8 °F 30.05 in Calm   2.0 mph 98 % 0.00 in
01:24 57.4 °F 56.8 °F 30.05 in East 2.0 mph 2.0 mph 98 % 0.00 in
01:29 57.4 °F 56.8 °F 30.05 in Calm   2.0 mph 98 % 0.00 in
01:34 57.4 °F 56.8 °F 30.05 in Calm   2.0 mph 98 % 0.00 in
01:39 57.4 °F 56.8 °F 30.05 in SE 2.0 mph 2.0 mph 98 % 0.00 in
01:44 57.4 °F 56.8 °F 30.05 in SE 1.0 mph 2.0 mph 98 % 0.00 in
01:49 57.6 °F 57.2 °F 30.05 in Calm   2.0 mph 99 % 0.00 in
01:54 57.6 °F 57.2 °F 30.05 in SE 1.0 mph 2.0 mph 99 % 0.00 in
01:59 57.6 °F 57.2 °F 30.05 in Calm   2.0 mph 99 % 0.00 in
02:04 57.6 °F 57.2 °F 30.05 in Calm   2.0 mph 99 % 0.00 in
02:09 57.6 °F 57.2 °F 30.05 in Calm   1.0 mph 99 % 0.00 in
02:14 57.6 °F 57.2 °F 30.05 in Calm   1.0 mph 99 % 0.00 in
02:19 57.7 °F 57.4 °F 30.04 in Calm   1.0 mph 99 % 0.00 in
02:24 57.7 °F 57.4 °F 30.04 in Calm   1.0 mph 99 % 0.00 in
02:29 57.7 °F 57.4 °F 30.04 in Calm   1.0 mph 99 % 0.00 in
02:34 57.7 °F 57.4 °F 30.04 in Calm   1.0 mph 99 % 0.00 in
02:39 57.7 °F 57.4 °F 30.05 in Calm   1.0 mph 99 % 0.00 in
02:44 57.7 °F 57.4 °F 30.04 in Calm   1.0 mph 99 % 0.00 in
02:49 57.7 °F 57.4 °F 30.04 in Calm   1.0 mph 99 % 0.00 in
02:54 57.7 °F 57.4 °F 30.04 in Calm   1.0 mph 99 % 0.00 in
02:59 57.7 °F 57.4 °F 30.04 in Calm   1.0 mph 99 % 0.00 in
03:04 57.9 °F 57.6 °F 30.04 in Calm   1.0 mph 99 % 0.00 in
03:09 57.9 °F 57.6 °F 30.04 in Calm   2.0 mph 99 % 0.00 in
03:14 57.9 °F 57.6 °F 30.04 in North 1.0 mph 2.0 mph 99 % 0.00 in
03:19 57.9 °F 57.6 °F 30.04 in Calm   2.0 mph 99 % 0.00 in
03:24 57.9 °F 57.6 °F 30.04 in Calm   2.0 mph 99 % 0.00 in
03:29 57.9 °F 57.6 °F 30.04 in Calm   2.0 mph 99 % 0.00 in
03:34 57.9 °F 57.6 °F 30.04 in Calm   2.0 mph 99 % 0.00 in
03:39 57.9 °F 57.6 °F 30.04 in Calm   2.0 mph 99 % 0.00 in
03:44 57.9 °F 57.6 °F 30.04 in NE 1.0 mph 2.0 mph 99 % 0.00 in
03:49 57.7 °F 57.4 °F 30.04 in Calm   2.0 mph 99 % 0.00 in
03:54 57.7 °F 57.4 °F 30.04 in Calm   2.0 mph 99 % 0.00 in
03:59 57.7 °F 57.4 °F 30.04 in Calm   2.0 mph 99 % 0.00 in
04:04 57.7 °F 57.4 °F 30.04 in Calm   2.0 mph 99 % 0.00 in
04:09 57.9 °F 57.6 °F 30.04 in Calm   2.0 mph 99 % 0.00 in
04:14 57.9 °F 57.6 °F 30.04 in Calm   2.0 mph 99 % 0.00 in
04:19 57.9 °F 57.6 °F 30.04 in Calm   2.0 mph 99 % 0.00 in
04:24 57.9 °F 57.6 °F 30.04 in Calm   1.0 mph 99 % 0.00 in
04:29 57.9 °F 57.6 °F 30.04 in Calm   1.0 mph 99 % 0.00 in
04:34 57.9 °F 57.6 °F 30.04 in Calm   1.0 mph 99 % 0.00 in
04:39 58.3 °F 57.9 °F 30.04 in Calm   1.0 mph 99 % 0.00 in
04:44 58.3 °F 57.9 °F 30.04 in Calm   1.0 mph 99 % 0.00 in
04:49 58.3 °F 57.9 °F 30.04 in Calm   1.0 mph 99 % 0.00 in
04:54 58.3 °F 57.9 °F 30.04 in Calm   1.0 mph 99 % 0.00 in
04:59 58.3 °F 57.9 °F 30.04 in Calm   1.0 mph 99 % 0.00 in
05:04 58.3 °F 57.9 °F 30.05 in Calm   1.0 mph 99 % 0.00 in
05:09 58.3 °F 57.9 °F 30.05 in Calm   1.0 mph 99 % 0.00 in
05:14 58.3 °F 57.9 °F 30.05 in Calm   1.0 mph 99 % 0.00 in
05:19 58.3 °F 57.9 °F 30.05 in Calm     99 % 0.00 in
05:24 58.5 °F 58.1 °F 30.05 in Calm   1.0 mph 99 % 0.01 in
05:29 58.5 °F 58.1 °F 30.05 in Calm   1.0 mph 99 % 0.01 in
05:34 58.5 °F 58.1 °F 30.05 in Calm   2.0 mph 99 % 0.01 in
05:40 58.5 °F 58.5 °F 30.05 in Calm   2.0 mph 100 % 0.01 in
05:45 58.6 °F 58.6 °F 30.06 in NNE 1.0 mph 2.0 mph 100 % 0.01 in
05:50 58.6 °F 58.6 °F 30.06 in Calm   1.0 mph 100 % 0.01 in
05:55 58.6 °F 58.6 °F 30.06 in Calm   1.0 mph 100 % 0.02 in
06:00 58.6 °F 58.6 °F 30.06 in Calm   1.0 mph 100 % 0.02 in
06:05 58.6 °F 58.6 °F 30.06 in NNE 1.0 mph 1.0 mph 100 % 0.02 in
06:10 58.8 °F 58.8 °F 30.06 in Calm   1.0 mph 100 % 0.02 in
06:15 58.8 °F 58.8 °F 30.06 in Calm   2.0 mph 100 % 0.02 in
06:20 58.8 °F 58.8 °F 30.06 in Calm   2.0 mph 100 % 0.02 in
06:25 58.8 °F 58.8 °F 30.06 in ENE 1.0 mph 2.0 mph 100 % 0.01 in
06:30 58.8 °F 58.8 °F 30.06 in Calm   2.0 mph 100 % 0.01 in
06:35 58.8 °F 58.8 °F 30.06 in Calm   2.0 mph 100 % 0.02 in
06:40 58.8 °F 58.8 °F 30.06 in Calm   4.0 mph 100 % 0.02 in
06:45 59.0 °F 59.0 °F 30.06 in Calm   4.0 mph 100 % 0.02 in
06:50 58.8 °F 58.8 °F 30.07 in Calm   3.0 mph 100 % 0.01 in
06:55 58.8 °F 58.8 °F 30.07 in Calm   3.0 mph 100 % 0.01 in
07:00 59.0 °F 59.0 °F 30.07 in Calm   3.0 mph 100 % 0.01 in
07:05 59.0 °F 59.0 °F 30.07 in Calm   1.0 mph 100 % 0.01 in
07:10 59.2 °F 59.2 °F 30.07 in NNE 1.0 mph 1.0 mph 100 % 0.01 in
07:15 59.2 °F 59.2 °F 30.08 in Calm   1.0 mph 100 % 0.01 in
07:20 59.2 °F 59.2 °F 30.08 in Calm   2.0 mph 100 % 0.01 in
07:25 59.2 °F 59.2 °F 30.08 in Calm   2.0 mph 100 % 0.00 in
07:30 59.2 °F 59.2 °F 30.08 in Calm   2.0 mph 100 % 0.00 in
07:35 59.4 °F 59.4 °F 30.08 in Calm   1.0 mph 100 % 0.00 in
07:40 59.4 °F 59.4 °F 30.08 in Calm   1.0 mph 100 % 0.00 in
07:45 59.4 °F 59.4 °F 30.08 in NE 1.0 mph 1.0 mph 100 % 0.00 in
07:50 59.5 °F 59.5 °F 30.08 in Calm   1.0 mph 100 % 0.00 in
07:55 59.5 °F 59.5 °F 30.08 in Calm   1.0 mph 100 % 0.00 in
08:00 59.7 °F 59.7 °F 30.08 in NE 1.0 mph 1.0 mph 100 % 0.00 in
08:05 59.9 °F 59.9 °F 30.08 in Calm   1.0 mph 100 % 0.00 in
08:10 60.1 °F 60.1 °F 30.08 in Calm   1.0 mph 100 % 0.00 in
08:15 60.1 °F 60.1 °F 30.07 in Calm   2.0 mph 100 % 0.00 in
08:20 60.3 °F 60.3 °F 30.07 in Calm   2.0 mph 100 % 0.00 in
08:25 60.4 °F 60.4 °F 30.07 in NNW 1.0 mph 2.0 mph 100 % 0.00 in
08:30 60.4 °F 60.4 °F 30.08 in Calm   2.0 mph 100 % 0.00 in
08:35 60.6 °F 60.6 °F 30.08 in Calm   2.0 mph 100 % 0.00 in
08:40 60.6 °F 60.6 °F 30.08 in Calm   2.0 mph 100 % 0.00 in
08:45 61.0 °F 61.0 °F 30.08 in Calm   2.0 mph 100 % 0.00 in
08:50 61.2 °F 61.2 °F 30.08 in Calm   1.0 mph 100 % 0.00 in
08:55 61.2 °F 61.2 °F 30.08 in Calm   2.0 mph 100 % 0.00 in
09:00 61.2 °F 61.2 °F 30.08 in Calm   2.0 mph 100 % 0.00 in
09:05 61.3 °F 61.3 °F 30.08 in ESE 1.0 mph 2.0 mph 100 % 0.00 in
09:10 61.5 °F 61.5 °F 30.09 in Calm   1.0 mph 100 % 0.00 in
09:15 61.7 °F 61.7 °F 30.09 in ESE 1.0 mph 1.0 mph 100 % 0.00 in
09:20 61.7 °F 61.7 °F 30.09 in Calm   2.0 mph 100 % 0.00 in
09:25 61.9 °F 61.9 °F 30.09 in East 1.0 mph 2.0 mph 100 % 0.00 in
09:30 61.9 °F 61.9 °F 30.08 in Calm   2.0 mph 100 % 0.00 in
09:35 62.1 °F 62.1 °F 30.08 in Calm   2.0 mph 100 % 0.00 in
09:40 62.2 °F 62.2 °F 30.08 in Calm   2.0 mph 100 % 0.00 in
09:45 62.4 °F 62.4 °F 30.08 in Calm   2.0 mph 100 % 0.00 in
09:50 62.6 °F 62.6 °F 30.08 in Calm   2.0 mph 100 % 0.00 in
09:55 63.0 °F 63.0 °F 30.08 in ENE 1.0 mph 2.0 mph 100 % 0.00 in
10:00 63.1 °F 63.1 °F 30.08 in Calm   2.0 mph 100 % 0.00 in
10:05 63.3 °F 63.3 °F 30.08 in East 1.0 mph 4.0 mph 100 % 0.00 in
10:10 63.7 °F 63.7 °F 30.09 in ESE 2.0 mph 4.0 mph 100 % 0.00 in
10:15 63.9 °F 63.9 °F 30.09 in SSE 2.0 mph 4.0 mph 100 % 0.00 in
10:20 64.2 °F 64.2 °F 30.09 in ESE 1.0 mph 4.0 mph 100 % 0.00 in
10:25 64.4 °F 64.4 °F 30.08 in SE 1.0 mph 4.0 mph 100 % 0.00 in
10:30 64.8 °F 64.8 °F 30.09 in ENE 2.0 mph 4.0 mph 100 % 0.00 in
10:35 64.8 °F 64.8 °F 30.08 in ESE 1.0 mph 4.0 mph 100 % 0.00 in
10:40 64.9 °F 64.9 °F 30.08 in SE 1.0 mph 4.0 mph 100 % 0.00 in
10:45 64.9 °F 64.9 °F 30.08 in SE 2.0 mph 5.0 mph 100 % 0.00 in
10:50 65.1 °F 65.1 °F 30.08 in SE 2.0 mph 5.0 mph 100 % 0.00 in
10:55 65.5 °F 65.5 °F 30.08 in Calm   5.0 mph 100 % 0.00 in
11:00 65.5 °F 65.5 °F 30.08 in ESE 1.0 mph 3.0 mph 100 % 0.00 in
11:05 65.7 °F 65.7 °F 30.08 in SE 1.0 mph 3.0 mph 100 % 0.00 in
11:10 65.8 °F 65.8 °F 30.08 in SE 1.0 mph 3.0 mph 100 % 0.00 in
11:15 65.8 °F 65.8 °F 30.08 in Calm   3.0 mph 100 % 0.00 in
11:20 66.0 °F 66.0 °F 30.08 in SE 1.0 mph 3.0 mph 100 % 0.01 in
11:25 66.2 °F 66.2 °F 30.08 in East 2.0 mph 3.0 mph 100 % 0.01 in
11:30 66.2 °F 66.2 °F 30.07 in Calm   3.0 mph 100 % 0.02 in
11:35 66.4 °F 66.4 °F 30.06 in Calm   3.0 mph 100 % 0.02 in
11:40 66.4 °F 66.4 °F 30.06 in ESE 2.0 mph 3.0 mph 100 % 0.02 in
11:45 66.6 °F 66.6 °F 30.06 in Calm   3.0 mph 100 % 0.02 in
11:50 66.7 °F 66.7 °F 30.06 in Calm   3.0 mph 100 % 0.02 in
11:55 66.9 °F 66.9 °F 30.06 in North 1.0 mph 3.0 mph 100 % 0.02 in
12:00 67.5 °F 67.5 °F 30.05 in Calm   3.0 mph 100 % 0.02 in
12:05 68.0 °F 68.0 °F 30.05 in Calm   2.0 mph 100 % 0.02 in
12:10 68.5 °F 68.5 °F 30.05 in Calm   2.0 mph 100 % 0.02 in
12:15 69.1 °F 69.1 °F 30.04 in Calm   2.0 mph 100 % 0.02 in
12:20 69.3 °F 69.3 °F 30.04 in Calm   2.0 mph 100 % 0.01 in
12:25 69.4 °F 69.4 °F 30.04 in ESE 2.0 mph 5.0 mph 100 % 0.01 in
12:30 69.6 °F 69.6 °F 30.04 in SE 2.0 mph 5.0 mph 100 % 0.00 in
12:35 70.0 °F 70.0 °F 30.03 in East 3.0 mph 5.0 mph 100 % 0.00 in
12:40 70.0 °F 70.0 °F 30.03 in SSE 3.0 mph 8.0 mph 100 % 0.00 in
12:45 70.3 °F 70.3 °F 30.02 in SSE 4.0 mph 8.0 mph 100 % 0.00 in
12:50 71.1 °F 71.1 °F 30.02 in ESE 4.0 mph 8.0 mph 100 % 0.00 in
12:55 71.1 °F 71.1 °F 30.01 in ENE 3.0 mph 7.0 mph 100 % 0.00 in
13:00 71.2 °F 71.2 °F 30.01 in SE 4.0 mph 7.0 mph 100 % 0.00 in
13:05 71.2 °F 71.2 °F 30.01 in SE 4.0 mph 10.0 mph 100 % 0.00 in
13:10 72.0 °F 72.0 °F 30.00 in SE 7.0 mph 10.0 mph 100 % 0.00 in
13:15 72.0 °F 72.0 °F 30.00 in SW 5.0 mph 10.0 mph 100 % 0.00 in
13:20 72.3 °F 72.0 °F 30.00 in SE 7.0 mph 10.0 mph 99 % 0.00 in
13:25 72.7 °F 72.1 °F 30.00 in SE 6.0 mph 10.0 mph 98 % 0.00 in
13:30 73.0 °F 72.1 °F 29.99 in SSW 9.0 mph 11.0 mph 97 % 0.00 in
13:35 73.8 °F 71.6 °F 29.99 in ESE 11.0 mph 12.0 mph 93 % 0.00 in
13:40 74.3 °F 71.4 °F 29.99 in SSE 4.0 mph 12.0 mph 91 % 0.00 in
13:45 74.8 °F 71.1 °F 29.98 in SE 5.0 mph 13.0 mph 88 % 0.00 in
13:50 75.4 °F 71.2 °F 29.98 in South 6.0 mph 13.0 mph 87 % 0.00 in
13:55 75.4 °F 70.9 °F 29.98 in SE 4.0 mph 13.0 mph 86 % 0.00 in
14:00 75.4 °F 70.5 °F 29.98 in ESE 10.0 mph 14.0 mph 85 % 0.00 in
14:05 75.4 °F 70.5 °F 29.98 in SE 4.0 mph 14.0 mph 85 % 0.00 in
14:10 75.4 °F 70.5 °F 29.98 in South 5.0 mph 14.0 mph 85 % 0.00 in
14:15 75.4 °F 70.5 °F 29.97 in SSE 6.0 mph 14.0 mph 85 % 0.00 in
14:20 75.2 °F 70.7 °F 29.98 in SE 8.0 mph 14.0 mph 86 % 0.00 in
14:25 75.2 °F 70.7 °F 29.97 in SSE 2.0 mph 14.0 mph 86 % 0.00 in
14:30 74.8 °F 70.7 °F 29.98 in SSE 6.0 mph 12.0 mph 87 % 0.00 in
14:35 74.7 °F 70.9 °F 29.97 in SE 4.0 mph 12.0 mph 88 % 0.00 in
14:41 74.7 °F 71.2 °F 29.97 in SE 2.0 mph 12.0 mph 89 % 0.00 in
14:46 74.8 °F 71.1 °F 29.97 in ESE 4.0 mph 12.0 mph 88 % 0.00 in
14:51 75.0 °F 71.6 °F 29.97 in SE 2.0 mph 9.0 mph 89 % 0.00 in
14:56 75.2 °F 71.1 °F 29.97 in ESE 7.0 mph 9.0 mph 87 % 0.00 in
15:01 75.0 °F 70.9 °F 29.97 in South 6.0 mph 13.0 mph 87 % 0.00 in
15:06 74.8 °F 70.7 °F 29.97 in South 8.0 mph 13.0 mph 87 % 0.00 in
15:11 74.7 °F 70.9 °F 29.97 in SSE 5.0 mph 13.0 mph 88 % 0.00 in
15:16 74.7 °F 71.2 °F 29.97 in ESE 5.0 mph 12.0 mph 89 % 0.00 in
15:21 74.5 °F 71.1 °F 29.97 in ESE 4.0 mph 12.0 mph 89 % 0.00 in
15:26 74.1 °F 70.7 °F 29.97 in SSE 3.0 mph 10.0 mph 89 % 0.00 in
15:31 74.1 °F 70.7 °F 29.97 in SE 6.0 mph 11.0 mph 89 % 0.00 in
15:36 73.9 °F 70.2 °F 29.96 in SSE 7.0 mph 14.0 mph 88 % 0.00 in
15:41 73.9 °F 69.8 °F 29.96 in SE 3.0 mph 14.0 mph 87 % 0.00 in
15:46 74.1 °F 70.0 °F 29.96 in SE 4.0 mph 14.0 mph 87 % 0.00 in
15:51 73.9 °F 69.8 °F 29.95 in SSE 8.0 mph 13.0 mph 87 % 0.00 in
15:56 73.9 °F 69.8 °F 29.95 in SE 5.0 mph 13.0 mph 87 % 0.00 in
16:01 73.9 °F 69.8 °F 29.94 in SSW 6.0 mph 13.0 mph 87 % 0.00 in
16:06 73.8 °F 70.0 °F 29.94 in SE 4.0 mph 12.0 mph 88 % 0.00 in
16:11 73.8 °F 70.0 °F 29.95 in SE 6.0 mph 12.0 mph 88 % 0.00 in
16:16 73.6 °F 70.2 °F 29.95 in SSE 4.0 mph 12.0 mph 89 % 0.00 in
16:21 73.6 °F 70.2 °F 29.95 in ESE 8.0 mph 11.0 mph 89 % 0.00 in
16:26 73.4 °F 70.0 °F 29.96 in SE 8.0 mph 11.0 mph 89 % 0.00 in
16:31 73.4 °F 70.0 °F 29.96 in South 7.0 mph 12.0 mph 89 % 0.00 in
16:36 73.4 °F 70.0 °F 29.96 in East 8.0 mph 12.0 mph 89 % 0.00 in
16:41 73.6 °F 70.2 °F 29.95 in South 4.0 mph 12.0 mph 89 % 0.00 in
16:46 73.6 °F 70.2 °F 29.96 in SE 2.0 mph 11.0 mph 89 % 0.00 in
16:51 73.6 °F 70.2 °F 29.96 in SSE 5.0 mph 10.0 mph 89 % 0.00 in
16:56 73.6 °F 70.2 °F 29.96 in SSE 6.0 mph 9.0 mph 89 % 0.00 in
17:01 73.4 °F 70.0 °F 29.96 in East 6.0 mph 11.0 mph 89 % 0.00 in
17:06 73.4 °F 70.0 °F 29.97 in SE 4.0 mph 11.0 mph 89 % 0.00 in
17:11 73.2 °F 69.8 °F 29.97 in South 9.0 mph 13.0 mph 89 % 0.00 in
17:16 73.2 °F 69.8 °F 29.97 in SW 6.0 mph 14.0 mph 89 % 0.00 in
17:21 73.2 °F 69.8 °F 29.97 in SSE 3.0 mph 14.0 mph 89 % 0.00 in
17:26 73.2 °F 69.8 °F 29.97 in SSE 6.0 mph 14.0 mph 89 % 0.00 in
17:31 73.2 °F 69.8 °F 29.97 in SSW 2.0 mph 10.0 mph 89 % 0.00 in
17:36 73.0 °F 70.0 °F 29.98 in SSW 5.0 mph 10.0 mph 90 % 0.00 in
17:41 73.0 °F 70.0 °F 29.97 in South 7.0 mph 12.0 mph 90 % 0.00 in
17:46 73.0 °F 70.0 °F 29.97 in South 5.0 mph 12.0 mph 90 % 0.00 in
17:51 73.0 °F 70.0 °F 29.97 in SE 7.0 mph 12.0 mph 90 % 0.00 in
17:56 73.0 °F 70.0 °F 29.97 in SSE 4.0 mph 12.0 mph 90 % 0.00 in
18:01 72.9 °F 69.8 °F 29.97 in SSE 4.0 mph 12.0 mph 90 % 0.00 in
18:06 72.9 °F 70.2 °F 29.97 in SSE 4.0 mph 12.0 mph 91 % 0.00 in
18:11 72.7 °F 70.0 °F 29.97 in SE 5.0 mph 12.0 mph 91 % 0.00 in
18:16 72.7 °F 70.0 °F 29.97 in South 7.0 mph 11.0 mph 91 % 0.00 in
18:21 72.5 °F 69.8 °F 29.97 in SE 4.0 mph 11.0 mph 91 % 0.00 in
18:26 72.3 °F 69.8 °F 29.96 in South 3.0 mph 11.0 mph 92 % 0.00 in
18:31 72.1 °F 69.6 °F 29.97 in SE 4.0 mph 11.0 mph 92 % 0.00 in
18:36 72.1 °F 69.6 °F 29.97 in SE 7.0 mph 9.0 mph 92 % 0.00 in
18:41 72.1 °F 70.0 °F 29.97 in SSE 5.0 mph 9.0 mph 93 % 0.00 in
18:46 72.0 °F 69.8 °F 29.97 in SSE 5.0 mph 9.0 mph 93 % 0.00 in
18:51 72.0 °F 69.8 °F 29.97 in ESE 5.0 mph 9.0 mph 93 % 0.00 in
18:56 72.1 °F 70.0 °F 29.97 in South 5.0 mph 10.0 mph 93 % 0.00 in
19:01 72.1 °F 70.0 °F 29.97 in SSE 3.0 mph 10.0 mph 93 % 0.00 in
19:06 72.0 °F 69.8 °F 29.97 in SE 4.0 mph 10.0 mph 93 % 0.00 in
19:11 72.0 °F 69.8 °F 29.97 in ESE 4.0 mph 10.0 mph 93 % 0.00 in
19:16 72.0 °F 70.2 °F 29.97 in South 5.0 mph 12.0 mph 94 % 0.00 in
19:21 72.0 °F 70.2 °F 29.98 in SSW 5.0 mph 12.0 mph 94 % 0.00 in
19:26 72.0 °F 70.2 °F 29.97 in East 6.0 mph 12.0 mph 94 % 0.00 in
19:31 72.0 °F 70.2 °F 29.97 in SE 8.0 mph 11.0 mph 94 % 0.00 in
19:36 72.0 °F 70.2 °F 29.98 in SSE 8.0 mph 11.0 mph 94 % 0.00 in
19:41 71.8 °F 70.0 °F 29.98 in SSE 4.0 mph 10.0 mph 94 % 0.00 in
19:46 71.8 °F 70.0 °F 29.98 in South 7.0 mph 10.0 mph 94 % 0.00 in
19:51 71.8 °F 70.0 °F 29.98 in SSW 3.0 mph 10.0 mph 94 % 0.00 in
19:56 71.8 °F 70.0 °F 29.99 in South 3.0 mph 10.0 mph 94 % 0.00 in
20:01 71.6 °F 69.8 °F 29.98 in SSE 3.0 mph 10.0 mph 94 % 0.00 in
20:06 71.6 °F 69.8 °F 29.99 in SE 5.0 mph 9.0 mph 94 % 0.00 in
20:11 71.4 °F 69.6 °F 29.99 in South 4.0 mph 9.0 mph 94 % 0.00 in
20:16 71.4 °F 70.0 °F 29.99 in SSE 4.0 mph 9.0 mph 95 % 0.00 in
20:22 71.4 °F 70.0 °F 29.99 in SE 6.0 mph 7.0 mph 95 % 0.00 in
20:27 71.4 °F 70.0 °F 29.99 in SSE 3.0 mph 7.0 mph 95 % 0.00 in
20:32 71.4 °F 70.0 °F 29.99 in SSE 4.0 mph 7.0 mph 95 % 0.00 in
20:37 71.4 °F 70.0 °F 30.00 in South 3.0 mph 7.0 mph 95 % 0.00 in
20:42 71.2 °F 69.8 °F 30.00 in SSW 1.0 mph 7.0 mph 95 % 0.00 in
20:47 71.2 °F 69.8 °F 30.00 in WSW 3.0 mph 7.0 mph 95 % 0.00 in
20:52 70.5 °F 67.8 °F 30.00 in NNW 2.0 mph 7.0 mph 91 % 0.00 in
20:57 69.1 °F 66.0 °F 30.01 in WSW 2.0 mph 8.0 mph 90 % 0.00 in
21:02 67.3 °F 63.9 °F 30.01 in West 2.0 mph 8.0 mph 89 % 0.00 in
21:07 65.7 °F 62.2 °F 30.01 in NW 2.0 mph 8.0 mph 89 % 0.00 in
21:12 64.2 °F 61.2 °F 30.01 in SW 5.0 mph 8.0 mph 90 % 0.00 in
21:17 63.3 °F 61.0 °F 30.02 in WSW 2.0 mph 8.0 mph 92 % 0.00 in
21:22 62.8 °F 60.8 °F 30.02 in West 1.0 mph 8.0 mph 93 % 0.00 in
21:27 62.4 °F 60.4 °F 30.02 in NW 5.0 mph 8.0 mph 93 % 0.00 in
21:32 61.7 °F 59.7 °F 30.02 in Calm   6.0 mph 93 % 0.00 in
21:37 61.2 °F 59.2 °F 30.02 in NNW 4.0 mph 6.0 mph 93 % 0.00 in
21:42 60.6 °F 58.6 °F 30.03 in Calm   7.0 mph 93 % 0.00 in
21:47 60.3 °F 58.5 °F 30.03 in WSW 1.0 mph 7.0 mph 94 % 0.00 in
21:52 60.1 °F 58.3 °F 30.02 in NNW 1.0 mph 7.0 mph 94 % 0.00 in
21:57 59.7 °F 57.9 °F 30.02 in NNW 1.0 mph 7.0 mph 94 % 0.00 in
22:02 59.4 °F 57.6 °F 30.02 in WNW 2.0 mph 6.0 mph 94 % 0.00 in
22:07 58.8 °F 57.0 °F 30.02 in Calm   6.0 mph 94 % 0.00 in
22:12 58.6 °F 56.8 °F 30.02 in Calm   5.0 mph 94 % 0.00 in
22:17 58.5 °F 57.0 °F 30.02 in Calm   5.0 mph 95 % 0.00 in
22:22 58.5 °F 57.0 °F 30.02 in Calm   4.0 mph 95 % 0.00 in
22:27 58.5 °F 57.0 °F 30.02 in WNW 1.0 mph 4.0 mph 95 % 0.00 in
22:32 58.3 °F 56.8 °F 30.02 in Calm   4.0 mph 95 % 0.00 in
22:37 57.9 °F 56.5 °F 30.01 in NW 2.0 mph 5.0 mph 95 % 0.00 in
22:42 57.9 °F 56.5 °F 30.02 in NW 1.0 mph 5.0 mph 95 % 0.00 in
22:47 57.7 °F 56.3 °F 30.02 in NNW 1.0 mph 5.0 mph 95 % 0.00 in
22:52 57.4 °F 55.9 °F 30.03 in NNW 2.0 mph 6.0 mph 95 % 0.00 in
22:57 57.0 °F 55.2 °F 30.03 in North 6.0 mph 7.0 mph 94 % 0.00 in
23:02 56.5 °F 55.0 °F 30.04 in WSW 3.0 mph 8.0 mph 95 % 0.00 in
23:07 56.1 °F 54.7 °F 30.04 in Calm   8.0 mph 95 % 0.00 in
23:12 55.9 °F 54.5 °F 30.04 in NW 7.0 mph 8.0 mph 95 % 0.00 in
23:17 55.6 °F 54.1 °F 30.04 in WNW 3.0 mph 9.0 mph 95 % 0.00 in
23:22 55.0 °F 53.6 °F 30.05 in WNW 5.0 mph 9.0 mph 95 % 0.00 in
23:27 54.5 °F 53.1 °F 30.04 in NW 5.0 mph 9.0 mph 95 % 0.00 in
23:32 54.0 °F 52.5 °F 30.05 in NW 6.0 mph 9.0 mph 95 % 0.00 in
23:37 53.8 °F 52.7 °F 30.04 in North 4.0 mph 10.0 mph 96 % 0.00 in
23:42 53.2 °F 51.8 °F 30.04 in WNW 1.0 mph 10.0 mph 95 % 0.00 in
23:47 53.1 °F 52.0 °F 30.04 in Calm   10.0 mph 96 % 0.00 in
23:52 52.9 °F 51.8 °F 30.04 in Calm   6.0 mph 96 % 0.00 in
23:57 52.9 °F 51.8 °F 30.04 in NW 4.0 mph 6.0 mph 96 % 0.00 in
Spring, Texas: Villages of Bridgestone
Compliments of Weather Underground - 2.75 mb

Script developed by  Jim McMurry - jmcmurry@mwt.net Adapted for the template by  Wim van der Kuil - Leuven-Template.eu

You find our weather info also at:

UK Metoffice

WeatherCloud

Weather Underground

Mid-South Weather Network

AWEKAS

Citizen Weather Observer Program (CWOP)

HAMweather, WeatherForYou, PWS Weather

Equipment we use:

Weather-station
Davis Vantage Vue

Weather-program
Meteohub

Weather-server
Debian 7.9 x86 (Guest)

Provider
DreamHost

Davis Vantage Vue

Meteohub

Debian 7.9 x86 (Guest)

DreamHost